sensor_id;sensor_type;location;lat;lon;timestamp;pressure;altitude;pressure_sealevel;temperature;humidity
25420;BME280;13354;48.174;11.566;2023-02-11T00:00:54;97578.59;;;1.40;64.91
25420;BME280;13354;48.174;11.566;2023-02-11T00:03:19;97575.94;;;1.41;64.42
25420;BME280;13354;48.174;11.566;2023-02-11T00:05:44;97577.25;;;1.49;64.20
25420;BME280;13354;48.174;11.566;2023-02-11T00:08:10;97572.09;;;1.47;63.90
25420;BME280;13354;48.174;11.566;2023-02-11T00:10:41;97575.47;;;1.49;64.22
25420;BME280;13354;48.174;11.566;2023-02-11T00:13:06;97568.72;;;1.31;64.66
25420;BME280;13354;48.174;11.566;2023-02-11T00:15:32;97573.84;;;1.32;65.12
25420;BME280;13354;48.174;11.566;2023-02-11T00:17:57;97574.94;;;1.28;64.91
25420;BME280;13354;48.174;11.566;2023-02-11T00:20:22;97578.38;;;1.29;65.11
25420;BME280;13354;48.174;11.566;2023-02-11T00:22:48;97586.75;;;1.19;65.09
25420;BME280;13354;48.174;11.566;2023-02-11T00:25:13;97582.94;;;1.25;64.69
25420;BME280;13354;48.174;11.566;2023-02-11T00:27:38;97576.59;;;1.15;65.25
25420;BME280;13354;48.174;11.566;2023-02-11T00:30:04;97580.53;;;1.06;65.89
25420;BME280;13354;48.174;11.566;2023-02-11T00:32:30;97575.53;;;1.17;65.81
25420;BME280;13354;48.174;11.566;2023-02-11T00:34:55;97562.50;;;1.17;65.75
25420;BME280;13354;48.174;11.566;2023-02-11T00:37:21;97562.69;;;1.14;66.07
25420;BME280;13354;48.174;11.566;2023-02-11T00:39:46;97563.09;;;1.07;66.06
25420;BME280;13354;48.174;11.566;2023-02-11T00:42:13;97568.88;;;0.98;66.39
25420;BME280;13354;48.174;11.566;2023-02-11T00:44:39;97556.81;;;1.11;66.29
25420;BME280;13354;48.174;11.566;2023-02-11T00:47:04;97553.44;;;1.09;66.28
25420;BME280;13354;48.174;11.566;2023-02-11T00:49:30;97556.75;;;0.96;66.36
25420;BME280;13354;48.174;11.566;2023-02-11T00:51:55;97546.75;;;0.89;66.55
25420;BME280;13354;48.174;11.566;2023-02-11T00:54:21;97551.38;;;1.00;66.37
25420;BME280;13354;48.174;11.566;2023-02-11T00:56:46;97552.88;;;0.88;66.99
25420;BME280;13354;48.174;11.566;2023-02-11T00:59:12;97545.66;;;0.93;66.93
25420;BME280;13354;48.174;11.566;2023-02-11T01:01:37;97547.31;;;0.94;66.74
25420;BME280;13354;48.174;11.566;2023-02-11T01:04:02;97553.25;;;0.82;66.89
25420;BME280;13354;48.174;11.566;2023-02-11T01:06:28;97554.34;;;0.78;67.54
25420;BME280;13354;48.174;11.566;2023-02-11T01:08:53;97552.75;;;0.75;67.76
25420;BME280;13354;48.174;11.566;2023-02-11T01:11:20;97542.88;;;0.80;67.12
25420;BME280;13354;48.174;11.566;2023-02-11T01:13:47;97541.31;;;0.78;67.24
25420;BME280;13354;48.174;11.566;2023-02-11T01:16:13;97554.25;;;0.79;67.19
25420;BME280;13354;48.174;11.566;2023-02-11T01:18:39;97554.34;;;0.78;67.21
25420;BME280;13354;48.174;11.566;2023-02-11T01:21:05;97555.59;;;0.70;67.33
25420;BME280;13354;48.174;11.566;2023-02-11T01:23:32;97551.91;;;0.75;67.23
25420;BME280;13354;48.174;11.566;2023-02-11T01:25:57;97542.38;;;0.73;67.50
25420;BME280;13354;48.174;11.566;2023-02-11T01:28:25;97539.19;;;0.68;67.17
25420;BME280;13354;48.174;11.566;2023-02-11T01:30:52;97543.31;;;0.72;67.51
25420;BME280;13354;48.174;11.566;2023-02-11T01:33:17;97538.47;;;0.66;67.20
25420;BME280;13354;48.174;11.566;2023-02-11T01:35:43;97537.00;;;0.61;67.02
25420;BME280;13354;48.174;11.566;2023-02-11T01:38:35;97552.66;;;0.61;67.35
25420;BME280;13354;48.174;11.566;2023-02-11T01:41:04;97537.59;;;0.66;66.89
25420;BME280;13354;48.174;11.566;2023-02-11T01:43:42;97544.41;;;0.68;66.73
25420;BME280;13354;48.174;11.566;2023-02-11T01:46:28;97541.41;;;0.60;67.49
25420;BME280;13354;48.174;11.566;2023-02-11T01:49:02;97547.03;;;0.53;67.55
25420;BME280;13354;48.174;11.566;2023-02-11T01:51:41;97541.81;;;0.53;67.96
25420;BME280;13354;48.174;11.566;2023-02-11T01:54:09;97543.38;;;0.55;67.57
25420;BME280;13354;48.174;11.566;2023-02-11T01:56:55;97543.50;;;0.54;67.53
25420;BME280;13354;48.174;11.566;2023-02-11T02:02:14;97548.34;;;0.44;68.03
25420;BME280;13354;48.174;11.566;2023-02-11T02:04:54;97549.28;;;0.43;68.53
25420;BME280;13354;48.174;11.566;2023-02-11T02:07:48;97546.78;;;0.41;68.58
25420;BME280;13354;48.174;11.566;2023-02-11T02:10:20;97538.78;;;0.44;68.69
25420;BME280;13354;48.174;11.566;2023-02-11T02:12:47;97540.69;;;0.72;67.70
25420;BME280;13354;48.174;11.566;2023-02-11T02:18:12;97530.63;;;0.66;67.55
25420;BME280;13354;48.174;11.566;2023-02-11T02:26:37;97515.25;;;0.46;68.15
25420;BME280;13354;48.174;11.566;2023-02-11T02:29:29;97509.69;;;0.52;68.16
25420;BME280;13354;48.174;11.566;2023-02-11T02:37:47;97489.31;;;0.59;67.49
25420;BME280;13354;48.174;11.566;2023-02-11T02:40:12;97475.78;;;0.68;67.14
25420;BME280;13354;48.174;11.566;2023-02-11T02:42:40;97484.22;;;0.57;66.90
25420;BME280;13354;48.174;11.566;2023-02-11T02:45:07;97483.56;;;0.84;66.29
25420;BME280;13354;48.174;11.566;2023-02-11T02:47:34;97486.78;;;0.73;66.43
25420;BME280;13354;48.174;11.566;2023-02-11T02:49:59;97490.00;;;0.62;66.86
25420;BME280;13354;48.174;11.566;2023-02-11T02:55:08;97478.22;;;0.55;67.13
25420;BME280;13354;48.174;11.566;2023-02-11T02:57:49;97474.13;;;0.51;66.87
25420;BME280;13354;48.174;11.566;2023-02-11T03:00:48;97464.78;;;0.47;67.01
25420;BME280;13354;48.174;11.566;2023-02-11T03:08:42;97455.56;;;0.41;66.62
25420;BME280;13354;48.174;11.566;2023-02-11T03:11:09;97442.38;;;0.44;66.32
25420;BME280;13354;48.174;11.566;2023-02-11T03:13:38;97442.63;;;0.40;65.93
25420;BME280;13354;48.174;11.566;2023-02-11T03:16:16;97440.59;;;0.45;65.92
25420;BME280;13354;48.174;11.566;2023-02-11T03:18:49;97440.94;;;0.39;66.10
25420;BME280;13354;48.174;11.566;2023-02-11T03:21:17;97431.69;;;0.49;66.35
25420;BME280;13354;48.174;11.566;2023-02-11T03:24:06;97432.78;;;0.45;65.83
25420;BME280;13354;48.174;11.566;2023-02-11T03:26:39;97436.97;;;0.47;65.55
25420;BME280;13354;48.174;11.566;2023-02-11T03:29:16;97427.81;;;0.40;65.98
25420;BME280;13354;48.174;11.566;2023-02-11T03:31:52;97435.72;;;0.39;65.78
25420;BME280;13354;48.174;11.566;2023-02-11T03:34:36;97438.75;;;0.47;65.63
25420;BME280;13354;48.174;11.566;2023-02-11T03:37:15;97442.72;;;0.38;65.57
25420;BME280;13354;48.174;11.566;2023-02-11T03:39:45;97448.06;;;0.51;64.82
25420;BME280;13354;48.174;11.566;2023-02-11T03:42:13;97435.22;;;0.48;65.28
25420;BME280;13354;48.174;11.566;2023-02-11T03:44:45;97445.28;;;0.54;65.01
25420;BME280;13354;48.174;11.566;2023-02-11T03:47:14;97440.47;;;0.62;64.60
25420;BME280;13354;48.174;11.566;2023-02-11T03:49:44;97440.22;;;0.67;64.16
25420;BME280;13354;48.174;11.566;2023-02-11T03:52:12;97449.63;;;0.69;64.68
25420;BME280;13354;48.174;11.566;2023-02-11T03:54:40;97444.94;;;0.60;64.15
25420;BME280;13354;48.174;11.566;2023-02-11T03:57:07;97451.25;;;0.56;64.53
25420;BME280;13354;48.174;11.566;2023-02-11T03:59:52;97440.34;;;0.50;65.02
25420;BME280;13354;48.174;11.566;2023-02-11T04:02:18;97441.34;;;0.63;64.21
25420;BME280;13354;48.174;11.566;2023-02-11T04:04:45;97448.72;;;0.55;64.63
25420;BME280;13354;48.174;11.566;2023-02-11T04:07:11;97444.44;;;0.54;64.91
25420;BME280;13354;48.174;11.566;2023-02-11T04:09:36;97446.19;;;0.69;64.31
25420;BME280;13354;48.174;11.566;2023-02-11T04:12:02;97444.63;;;0.66;63.96
25420;BME280;13354;48.174;11.566;2023-02-11T04:14:28;97450.06;;;0.62;63.92
25420;BME280;13354;48.174;11.566;2023-02-11T04:16:53;97463.38;;;0.57;64.01
25420;BME280;13354;48.174;11.566;2023-02-11T04:19:19;97467.91;;;0.54;63.94
25420;BME280;13354;48.174;11.566;2023-02-11T04:21:45;97463.94;;;0.62;64.13
25420;BME280;13354;48.174;11.566;2023-02-11T04:24:11;97469.09;;;0.48;64.35
25420;BME280;13354;48.174;11.566;2023-02-11T04:26:36;97461.03;;;0.53;64.09
25420;BME280;13354;48.174;11.566;2023-02-11T04:29:01;97463.19;;;0.60;63.89
25420;BME280;13354;48.174;11.566;2023-02-11T04:31:27;97470.19;;;0.60;63.79
25420;BME280;13354;48.174;11.566;2023-02-11T04:33:52;97463.63;;;0.53;64.22
25420;BME280;13354;48.174;11.566;2023-02-11T04:36:18;97468.56;;;0.57;63.75
25420;BME280;13354;48.174;11.566;2023-02-11T04:38:43;97469.41;;;0.58;64.08
25420;BME280;13354;48.174;11.566;2023-02-11T04:41:08;97487.16;;;0.51;63.89
25420;BME280;13354;48.174;11.566;2023-02-11T04:43:34;97491.69;;;0.47;63.88
25420;BME280;13354;48.174;11.566;2023-02-11T04:45:59;97493.81;;;0.57;63.94
25420;BME280;13354;48.174;11.566;2023-02-11T04:48:25;97489.09;;;0.47;64.65
25420;BME280;13354;48.174;11.566;2023-02-11T04:50:50;97492.63;;;0.46;64.77
25420;BME280;13354;48.174;11.566;2023-02-11T04:53:15;97501.94;;;0.51;65.08
25420;BME280;13354;48.174;11.566;2023-02-11T04:55:41;97511.63;;;0.48;64.72
25420;BME280;13354;48.174;11.566;2023-02-11T04:58:06;97508.88;;;0.52;64.38
25420;BME280;13354;48.174;11.566;2023-02-11T05:00:32;97513.63;;;0.43;64.72
25420;BME280;13354;48.174;11.566;2023-02-11T05:02:57;97509.13;;;0.31;65.61
25420;BME280;13354;48.174;11.566;2023-02-11T05:05:23;97503.38;;;0.24;65.65
25420;BME280;13354;48.174;11.566;2023-02-11T05:07:48;97500.63;;;0.28;66.15
25420;BME280;13354;48.174;11.566;2023-02-11T05:10:13;97498.94;;;0.27;65.90
25420;BME280;13354;48.174;11.566;2023-02-11T05:12:39;97497.91;;;0.13;66.46
25420;BME280;13354;48.174;11.566;2023-02-11T05:15:04;97494.72;;;0.08;67.03
25420;BME280;13354;48.174;11.566;2023-02-11T05:17:30;97493.72;;;0.11;66.96
25420;BME280;13354;48.174;11.566;2023-02-11T05:19:55;97490.63;;;0.20;66.79
25420;BME280;13354;48.174;11.566;2023-02-11T05:22:20;97495.72;;;0.21;66.85
25420;BME280;13354;48.174;11.566;2023-02-11T05:24:46;97484.63;;;0.18;66.80
25420;BME280;13354;48.174;11.566;2023-02-11T05:27:12;97483.22;;;0.12;66.89
25420;BME280;13354;48.174;11.566;2023-02-11T05:29:37;97485.56;;;0.17;66.87
25420;BME280;13354;48.174;11.566;2023-02-11T05:32:03;97484.56;;;0.35;66.06
25420;BME280;13354;48.174;11.566;2023-02-11T05:34:29;97480.88;;;0.23;66.75
25420;BME280;13354;48.174;11.566;2023-02-11T05:36:54;97477.19;;;0.28;66.35
25420;BME280;13354;48.174;11.566;2023-02-11T05:39:20;97466.16;;;0.38;65.96
25420;BME280;13354;48.174;11.566;2023-02-11T05:41:45;97469.53;;;0.24;66.33
25420;BME280;13354;48.174;11.566;2023-02-11T05:44:11;97468.25;;;0.32;66.06
25420;BME280;13354;48.174;11.566;2023-02-11T05:46:36;97473.38;;;0.17;66.72
25420;BME280;13354;48.174;11.566;2023-02-11T05:49:02;97468.75;;;0.07;66.93
25420;BME280;13354;48.174;11.566;2023-02-11T05:51:27;97470.19;;;0.12;66.81
25420;BME280;13354;48.174;11.566;2023-02-11T05:53:53;97461.63;;;0.42;66.42
25420;BME280;13354;48.174;11.566;2023-02-11T05:56:18;97456.75;;;0.36;66.68
25420;BME280;13354;48.174;11.566;2023-02-11T05:58:44;97461.00;;;0.37;66.30
25420;BME280;13354;48.174;11.566;2023-02-11T06:01:09;97454.06;;;0.37;66.29
25420;BME280;13354;48.174;11.566;2023-02-11T06:03:34;97448.44;;;0.45;65.93
25420;BME280;13354;48.174;11.566;2023-02-11T06:06:00;97445.75;;;0.31;66.07
25420;BME280;13354;48.174;11.566;2023-02-11T06:08:26;97439.69;;;0.30;65.64
25420;BME280;13354;48.174;11.566;2023-02-11T06:10:51;97441.38;;;0.31;65.33
25420;BME280;13354;48.174;11.566;2023-02-11T06:13:16;97449.09;;;0.33;65.26
25420;BME280;13354;48.174;11.566;2023-02-11T06:15:43;97449.97;;;0.33;65.30
25420;BME280;13354;48.174;11.566;2023-02-11T06:18:09;97452.19;;;0.39;65.21
25420;BME280;13354;48.174;11.566;2023-02-11T06:20:35;97469.28;;;0.45;64.95
25420;BME280;13354;48.174;11.566;2023-02-11T06:23:01;97462.56;;;0.41;64.79
25420;BME280;13354;48.174;11.566;2023-02-11T06:25:27;97466.44;;;0.34;65.03
25420;BME280;13354;48.174;11.566;2023-02-11T06:27:52;97470.03;;;0.31;65.34
25420;BME280;13354;48.174;11.566;2023-02-11T06:30:18;97470.19;;;0.44;65.52
25420;BME280;13354;48.174;11.566;2023-02-11T06:32:43;97462.56;;;0.41;65.49
25420;BME280;13354;48.174;11.566;2023-02-11T06:35:08;97469.94;;;0.48;64.96
25420;BME280;13354;48.174;11.566;2023-02-11T06:37:34;97472.56;;;0.48;65.09
25420;BME280;13354;48.174;11.566;2023-02-11T06:39:59;97464.88;;;0.61;64.61
25420;BME280;13354;48.174;11.566;2023-02-11T06:42:25;97459.91;;;0.57;64.83
25420;BME280;13354;48.174;11.566;2023-02-11T06:44:50;97445.84;;;0.75;64.12
25420;BME280;13354;48.174;11.566;2023-02-11T06:47:16;97446.69;;;0.76;64.17
25420;BME280;13354;48.174;11.566;2023-02-11T06:49:41;97445.00;;;0.75;64.21
25420;BME280;13354;48.174;11.566;2023-02-11T06:52:07;97441.84;;;0.84;63.74
25420;BME280;13354;48.174;11.566;2023-02-11T06:54:32;97454.56;;;0.90;63.56
25420;BME280;13354;48.174;11.566;2023-02-11T06:56:57;97464.16;;;0.89;63.41
25420;BME280;13354;48.174;11.566;2023-02-11T06:59:22;97464.72;;;0.94;63.81
25420;BME280;13354;48.174;11.566;2023-02-11T07:01:48;97471.75;;;1.08;63.40
25420;BME280;13354;48.174;11.566;2023-02-11T07:04:15;97476.59;;;1.14;68.48
25420;BME280;13354;48.174;11.566;2023-02-11T07:06:41;97483.94;;;1.52;72.45
25420;BME280;13354;48.174;11.566;2023-02-11T07:09:07;97480.75;;;1.47;68.45
25420;BME280;13354;48.174;11.566;2023-02-11T07:11:33;97473.09;;;1.58;66.98
25420;BME280;13354;48.174;11.566;2023-02-11T07:14:01;97468.47;;;1.78;62.62
25420;BME280;13354;48.174;11.566;2023-02-11T07:16:27;97469.41;;;1.62;64.03
25420;BME280;13354;48.174;11.566;2023-02-11T07:18:52;97461.38;;;1.65;62.88
25420;BME280;13354;48.174;11.566;2023-02-11T07:21:19;97458.09;;;1.62;62.72
25420;BME280;13354;48.174;11.566;2023-02-11T07:23:46;97459.69;;;1.79;61.19
25420;BME280;13354;48.174;11.566;2023-02-11T07:26:14;97441.53;;;1.77;61.10
25420;BME280;13354;48.174;11.566;2023-02-11T07:28:40;97439.81;;;1.76;60.93
25420;BME280;13354;48.174;11.566;2023-02-11T07:31:07;97437.13;;;1.78;61.04
25420;BME280;13354;48.174;11.566;2023-02-11T07:33:34;97448.13;;;1.83;60.81
25420;BME280;13354;48.174;11.566;2023-02-11T07:36:00;97463.06;;;1.81;62.10
25420;BME280;13354;48.174;11.566;2023-02-11T07:38:25;97459.03;;;1.89;61.20
25420;BME280;13354;48.174;11.566;2023-02-11T07:40:51;97456.78;;;1.98;59.57
25420;BME280;13354;48.174;11.566;2023-02-11T07:43:16;97459.16;;;1.88;59.80
25420;BME280;13354;48.174;11.566;2023-02-11T07:45:41;97450.09;;;1.79;59.33
25420;BME280;13354;48.174;11.566;2023-02-11T07:48:07;97445.97;;;1.75;59.28
25420;BME280;13354;48.174;11.566;2023-02-11T07:50:32;97447.47;;;1.79;58.70
25420;BME280;13354;48.174;11.566;2023-02-11T07:52:58;97453.47;;;1.81;58.34
25420;BME280;13354;48.174;11.566;2023-02-11T07:55:23;97455.22;;;1.81;58.31
25420;BME280;13354;48.174;11.566;2023-02-11T07:57:49;97450.72;;;1.83;58.06
25420;BME280;13354;48.174;11.566;2023-02-11T08:00:15;97436.38;;;1.90;57.60
25420;BME280;13354;48.174;11.566;2023-02-11T08:02:41;97422.13;;;1.81;57.21
25420;BME280;13354;48.174;11.566;2023-02-11T08:05:07;97424.25;;;1.89;57.12
25420;BME280;13354;48.174;11.566;2023-02-11T08:07:32;97427.03;;;1.86;56.71
25420;BME280;13354;48.174;11.566;2023-02-11T08:09:58;97428.22;;;1.94;56.79
25420;BME280;13354;48.174;11.566;2023-02-11T08:12:23;97430.63;;;2.12;56.23
25420;BME280;13354;48.174;11.566;2023-02-11T08:14:49;97436.53;;;2.01;56.67
25420;BME280;13354;48.174;11.566;2023-02-11T08:17:15;97431.09;;;2.18;56.72
25420;BME280;13354;48.174;11.566;2023-02-11T08:19:41;97421.31;;;2.08;56.63
25420;BME280;13354;48.174;11.566;2023-02-11T08:22:07;97418.50;;;2.25;56.31
25420;BME280;13354;48.174;11.566;2023-02-11T08:24:32;97402.34;;;2.46;55.51
25420;BME280;13354;48.174;11.566;2023-02-11T08:26:57;97415.41;;;2.46;55.82
25420;BME280;13354;48.174;11.566;2023-02-11T08:29:23;97414.31;;;2.35;55.47
25420;BME280;13354;48.174;11.566;2023-02-11T08:31:48;97424.50;;;2.40;55.78
25420;BME280;13354;48.174;11.566;2023-02-11T08:34:14;97422.72;;;2.40;56.17
25420;BME280;13354;48.174;11.566;2023-02-11T08:36:42;97433.13;;;2.55;55.53
25420;BME280;13354;48.174;11.566;2023-02-11T08:39:15;97436.28;;;2.60;55.64
25420;BME280;13354;48.174;11.566;2023-02-11T08:41:41;97447.84;;;2.70;55.54
25420;BME280;13354;48.174;11.566;2023-02-11T08:44:07;97452.25;;;2.82;55.25
25420;BME280;13354;48.174;11.566;2023-02-11T08:46:32;97448.28;;;2.77;55.11
25420;BME280;13354;48.174;11.566;2023-02-11T08:48:57;97443.50;;;2.96;55.14
25420;BME280;13354;48.174;11.566;2023-02-11T08:51:27;97433.50;;;2.76;55.60
25420;BME280;13354;48.174;11.566;2023-02-11T08:53:54;97441.97;;;2.79;55.69
25420;BME280;13354;48.174;11.566;2023-02-11T08:56:21;97444.09;;;2.87;55.68
25420;BME280;13354;48.174;11.566;2023-02-11T08:58:47;97449.69;;;2.95;55.33
25420;BME280;13354;48.174;11.566;2023-02-11T09:01:18;97443.38;;;2.98;55.00
25420;BME280;13354;48.174;11.566;2023-02-11T09:03:45;97436.72;;;3.19;54.81
25420;BME280;13354;48.174;11.566;2023-02-11T09:06:11;97433.47;;;3.15;54.47
25420;BME280;13354;48.174;11.566;2023-02-11T09:08:41;97420.19;;;3.19;54.67
25420;BME280;13354;48.174;11.566;2023-02-11T09:11:07;97431.06;;;3.12;54.56
25420;BME280;13354;48.174;11.566;2023-02-11T09:13:33;97431.19;;;3.24;54.54
25420;BME280;13354;48.174;11.566;2023-02-11T09:15:59;97428.78;;;3.33;54.66
25420;BME280;13354;48.174;11.566;2023-02-11T09:18:25;97429.00;;;3.30;54.50
25420;BME280;13354;48.174;11.566;2023-02-11T09:20:52;97430.66;;;3.19;55.04
25420;BME280;13354;48.174;11.566;2023-02-11T09:23:18;97422.81;;;3.19;55.12
25420;BME280;13354;48.174;11.566;2023-02-11T09:25:44;97411.63;;;3.29;55.14
25420;BME280;13354;48.174;11.566;2023-02-11T09:28:09;97409.50;;;3.34;54.89
25420;BME280;13354;48.174;11.566;2023-02-11T09:30:36;97410.47;;;3.33;55.01
25420;BME280;13354;48.174;11.566;2023-02-11T09:33:02;97416.13;;;3.40;55.06
25420;BME280;13354;48.174;11.566;2023-02-11T09:35:28;97418.34;;;3.46;54.88
25420;BME280;13354;48.174;11.566;2023-02-11T09:37:53;97415.91;;;3.43;55.21
25420;BME280;13354;48.174;11.566;2023-02-11T09:40:19;97413.94;;;3.47;55.12
25420;BME280;13354;48.174;11.566;2023-02-11T09:45:23;97433.09;;;3.73;54.33
25420;BME280;13354;48.174;11.566;2023-02-11T09:48:03;97426.34;;;3.94;54.14
25420;BME280;13354;48.174;11.566;2023-02-11T09:50:33;97439.03;;;3.75;54.60
25420;BME280;13354;48.174;11.566;2023-02-11T09:55:41;97426.25;;;4.20;53.70
25420;BME280;13354;48.174;11.566;2023-02-11T09:58:13;97408.97;;;4.41;53.41
25420;BME280;13354;48.174;11.566;2023-02-11T10:00:43;97398.78;;;4.49;53.41
25420;BME280;13354;48.174;11.566;2023-02-11T10:03:25;97396.19;;;4.49;53.05
25420;BME280;13354;48.174;11.566;2023-02-11T10:11:51;97385.53;;;4.75;52.78
25420;BME280;13354;48.174;11.566;2023-02-11T10:22:57;97400.88;;;5.03;52.64
25420;BME280;13354;48.174;11.566;2023-02-11T10:25:37;97404.84;;;5.09;52.38
25420;BME280;13354;48.174;11.566;2023-02-11T10:30:44;97400.09;;;5.25;52.31
25420;BME280;13354;48.174;11.566;2023-02-11T10:33:48;97390.81;;;5.44;51.57
25420;BME280;13354;48.174;11.566;2023-02-11T10:36:05;97386.91;;;5.49;51.05
25420;BME280;13354;48.174;11.566;2023-02-11T10:38:30;97376.63;;;5.80;50.05
25420;BME280;13354;48.174;11.566;2023-02-11T10:40:58;97390.81;;;5.77;50.15
25420;BME280;13354;48.174;11.566;2023-02-11T10:43:25;97392.38;;;5.91;49.55
25420;BME280;13354;48.174;11.566;2023-02-11T10:45:53;97389.53;;;5.61;49.87
25420;BME280;13354;48.174;11.566;2023-02-11T10:48:40;97390.13;;;5.75;49.95
25420;BME280;13354;48.174;11.566;2023-02-11T10:53:33;97387.41;;;6.43;48.26
25420;BME280;13354;48.174;11.566;2023-02-11T10:56:00;97365.63;;;6.52;48.27
25420;BME280;13354;48.174;11.566;2023-02-11T10:58:43;97362.31;;;6.71;47.25
25420;BME280;13354;48.174;11.566;2023-02-11T11:01:09;97362.97;;;7.05;46.68
25420;BME280;13354;48.174;11.566;2023-02-11T11:03:46;97362.53;;;7.00;46.45
25420;BME280;13354;48.174;11.566;2023-02-11T11:06:13;97364.22;;;6.69;46.69
25420;BME280;13354;48.174;11.566;2023-02-11T11:08:47;97360.81;;;6.57;45.72
25420;BME280;13354;48.174;11.566;2023-02-11T11:11:21;97362.94;;;6.63;45.48
25420;BME280;13354;48.174;11.566;2023-02-11T11:16:34;97365.94;;;6.26;44.61
25420;BME280;13354;48.174;11.566;2023-02-11T11:24:39;97353.34;;;6.41;44.57
25420;BME280;13354;48.174;11.566;2023-02-11T11:27:05;97358.25;;;6.35;44.92
25420;BME280;13354;48.174;11.566;2023-02-11T11:29:36;97354.72;;;6.13;44.73
25420;BME280;13354;48.174;11.566;2023-02-11T11:32:05;97360.84;;;6.02;45.25
25420;BME280;13354;48.174;11.566;2023-02-11T11:34:37;97348.16;;;6.19;45.42
25420;BME280;13354;48.174;11.566;2023-02-11T11:37:12;97344.13;;;6.36;45.03
25420;BME280;13354;48.174;11.566;2023-02-11T11:39:39;97339.09;;;6.44;44.72
25420;BME280;13354;48.174;11.566;2023-02-11T11:42:24;97341.78;;;6.86;44.13
25420;BME280;13354;48.174;11.566;2023-02-11T11:45:02;97345.75;;;7.01;44.13
25420;BME280;13354;48.174;11.566;2023-02-11T11:48:26;97337.13;;;6.99;44.25
25420;BME280;13354;48.174;11.566;2023-02-11T11:50:29;97342.25;;;7.21;43.90
25420;BME280;13354;48.174;11.566;2023-02-11T11:53:03;97354.34;;;7.55;42.95
25420;BME280;13354;48.174;11.566;2023-02-11T11:55:38;97350.84;;;7.75;42.66
25420;BME280;13354;48.174;11.566;2023-02-11T11:58:10;97353.97;;;7.59;42.48
25420;BME280;13354;48.174;11.566;2023-02-11T12:09:28;97342.66;;;6.75;43.59
25420;BME280;13354;48.174;11.566;2023-02-11T12:15:28;97341.25;;;6.92;43.64
25420;BME280;13354;48.174;11.566;2023-02-11T12:18:21;97331.94;;;6.67;44.27
25420;BME280;13354;48.174;11.566;2023-02-11T12:23:40;97342.88;;;6.83;44.52
25420;BME280;13354;48.174;11.566;2023-02-11T12:26:16;97344.53;;;6.84;44.39
25420;BME280;13354;48.174;11.566;2023-02-11T12:29:13;97332.19;;;6.85;43.70
25420;BME280;13354;48.174;11.566;2023-02-11T12:39:43;97320.91;;;7.15;43.56
25420;BME280;13354;48.174;11.566;2023-02-11T12:53:03;97309.59;;;7.03;44.38
25420;BME280;13354;48.174;11.566;2023-02-11T12:55:43;97306.44;;;7.09;44.33
25420;BME280;13354;48.174;11.566;2023-02-11T12:58:15;97303.50;;;7.02;44.96
25420;BME280;13354;48.174;11.566;2023-02-11T13:00:54;97305.75;;;7.07;44.28
25420;BME280;13354;48.174;11.566;2023-02-11T13:03:53;97294.44;;;6.95;44.83
25420;BME280;13354;48.174;11.566;2023-02-11T13:06:29;97282.75;;;7.09;44.83
25420;BME280;13354;48.174;11.566;2023-02-11T13:09:01;97288.00;;;7.40;44.21
25420;BME280;13354;48.174;11.566;2023-02-11T13:11:32;97284.84;;;7.46;43.96
25420;BME280;13354;48.174;11.566;2023-02-11T13:14:04;97298.38;;;7.32;43.85
25420;BME280;13354;48.174;11.566;2023-02-11T13:21:49;97269.47;;;8.11;42.71
25420;BME280;13354;48.174;11.566;2023-02-11T13:24:32;97267.44;;;8.43;42.09
25420;BME280;13354;48.174;11.566;2023-02-11T13:35:38;97238.97;;;9.68;39.08
25420;BME280;13354;48.174;11.566;2023-02-11T13:40:38;97246.44;;;9.73;38.40
25420;BME280;13354;48.174;11.566;2023-02-11T13:43:06;97244.63;;;9.74;37.82
25420;BME280;13354;48.174;11.566;2023-02-11T13:45:47;97251.53;;;9.57;37.97
25420;BME280;13354;48.174;11.566;2023-02-11T13:48:21;97253.59;;;9.35;39.13
25420;BME280;13354;48.174;11.566;2023-02-11T13:50:48;97250.78;;;9.37;38.92
25420;BME280;13354;48.174;11.566;2023-02-11T13:53:15;97260.84;;;9.24;38.87
25420;BME280;13354;48.174;11.566;2023-02-11T13:55:46;97263.50;;;9.24;38.52
25420;BME280;13354;48.174;11.566;2023-02-11T14:09:00;97258.75;;;9.27;38.98
25420;BME280;13354;48.174;11.566;2023-02-11T14:14:19;97256.97;;;9.55;38.99
25420;BME280;13354;48.174;11.566;2023-02-11T14:19:42;97259.22;;;9.50;38.75
25420;BME280;13354;48.174;11.566;2023-02-11T14:22:22;97256.03;;;9.09;39.19
25420;BME280;13354;48.174;11.566;2023-02-11T14:24:51;97258.72;;;9.00;39.66
25420;BME280;13354;48.174;11.566;2023-02-11T14:27:45;97255.03;;;8.73;40.49
25420;BME280;13354;48.174;11.566;2023-02-11T14:30:41;97259.06;;;8.58;40.73
25420;BME280;13354;48.174;11.566;2023-02-11T14:33:45;97273.38;;;8.45;41.30
25420;BME280;13354;48.174;11.566;2023-02-11T14:39:30;97273.78;;;8.21;42.94
25420;BME280;13354;48.174;11.566;2023-02-11T14:42:00;97267.22;;;8.06;43.66
25420;BME280;13354;48.174;11.566;2023-02-11T14:44:29;97264.72;;;8.05;43.80
25420;BME280;13354;48.174;11.566;2023-02-11T14:46:58;97271.66;;;7.96;44.19
25420;BME280;13354;48.174;11.566;2023-02-11T14:51:53;97266.78;;;7.82;44.88
25420;BME280;13354;48.174;11.566;2023-02-11T14:54:22;97270.38;;;7.90;45.24
25420;BME280;13354;48.174;11.566;2023-02-11T14:57:18;97279.97;;;7.91;45.32
25420;BME280;13354;48.174;11.566;2023-02-11T14:59:53;97280.53;;;7.95;45.67
25420;BME280;13354;48.174;11.566;2023-02-11T15:02:24;97278.44;;;7.89;46.12
25420;BME280;13354;48.174;11.566;2023-02-11T15:04:53;97279.69;;;7.94;46.07
25420;BME280;13354;48.174;11.566;2023-02-11T15:07:19;97276.22;;;7.84;46.94
25420;BME280;13354;48.174;11.566;2023-02-11T15:09:50;97275.66;;;7.90;46.94
25420;BME280;13354;48.174;11.566;2023-02-11T15:12:24;97270.97;;;7.84;47.21
25420;BME280;13354;48.174;11.566;2023-02-11T15:14:55;97274.28;;;7.86;47.39
25420;BME280;13354;48.174;11.566;2023-02-11T15:17:24;97270.78;;;7.76;47.82
25420;BME280;13354;48.174;11.566;2023-02-11T15:19:53;97274.81;;;7.70;48.19
25420;BME280;13354;48.174;11.566;2023-02-11T15:22:27;97275.53;;;7.82;47.95